createdAt,value
2022-12-11T00:00:37.207Z,20.20
2022-12-11T00:03:05.051Z,20.20
2022-12-11T00:05:32.814Z,20.20
2022-12-11T00:08:00.737Z,20.10
2022-12-11T00:10:30.238Z,20.10
2022-12-11T00:13:00.001Z,20.10
2022-12-11T00:15:27.861Z,20.10
2022-12-11T00:17:55.630Z,20.10
2022-12-11T00:20:23.496Z,20.10
2022-12-11T00:22:51.503Z,20.10
2022-12-11T00:25:19.306Z,20.10
2022-12-11T00:27:47.113Z,20.10
2022-12-11T00:30:14.871Z,20.10
2022-12-11T00:32:44.119Z,20.10
2022-12-11T00:35:12.526Z,20.10
2022-12-11T00:37:40.826Z,20.00
2022-12-11T00:40:08.669Z,20.00
2022-12-11T00:42:36.639Z,20.00
2022-12-11T00:45:04.460Z,20.00
2022-12-11T00:47:32.496Z,20.00
2022-12-11T00:50:00.586Z,19.90
2022-12-11T00:52:28.515Z,19.90
2022-12-11T00:54:56.314Z,19.90
2022-12-11T00:57:24.302Z,19.90
2022-12-11T00:59:52.054Z,19.90
2022-12-11T01:02:20.067Z,19.90
2022-12-11T01:04:47.806Z,19.90
2022-12-11T01:07:15.650Z,19.90
2022-12-11T01:10:00.922Z,19.90
2022-12-11T01:12:28.771Z,19.90
2022-12-11T01:14:56.525Z,19.90
2022-12-11T01:17:24.273Z,19.90
2022-12-11T01:19:52.013Z,19.90
2022-12-11T01:22:19.801Z,19.90
2022-12-11T01:24:47.615Z,19.90
2022-12-11T01:27:15.349Z,19.90
2022-12-11T01:29:43.157Z,19.90
2022-12-11T01:32:10.919Z,19.90
2022-12-11T01:34:39.243Z,19.90
2022-12-11T01:37:07.085Z,19.90
2022-12-11T01:39:34.798Z,19.80
2022-12-11T01:42:02.695Z,19.80
2022-12-11T01:44:30.436Z,19.80
2022-12-11T01:46:58.488Z,19.80
2022-12-11T01:49:26.265Z,19.80
2022-12-11T01:51:54.048Z,19.80
2022-12-11T01:54:21.893Z,19.80
2022-12-11T01:56:49.692Z,19.80
2022-12-11T01:59:24.074Z,19.80
2022-12-11T02:01:52.219Z,19.80
2022-12-11T02:04:20.232Z,19.80
2022-12-11T02:06:47.961Z,19.80
2022-12-11T02:09:15.758Z,19.80
2022-12-11T02:11:43.604Z,19.80
2022-12-11T02:14:11.381Z,19.70
2022-12-11T02:16:39.198Z,19.70
2022-12-11T02:19:07.004Z,19.70
2022-12-11T02:21:34.922Z,19.70
2022-12-11T02:24:02.753Z,19.70
2022-12-11T02:26:30.509Z,19.70
2022-12-11T02:28:58.256Z,19.70
2022-12-11T02:31:26.070Z,19.70
2022-12-11T02:33:53.952Z,19.70
2022-12-11T02:36:21.748Z,19.70
2022-12-11T02:38:50.745Z,19.70
2022-12-11T02:41:18.513Z,19.70
2022-12-11T02:43:46.291Z,19.70
2022-12-11T02:46:14.099Z,19.70
2022-12-11T02:48:41.935Z,19.70
2022-12-11T02:51:10.071Z,19.70
2022-12-11T02:53:37.866Z,19.70
2022-12-11T02:56:05.710Z,19.60
2022-12-11T02:58:33.607Z,19.60
2022-12-11T03:01:01.538Z,19.60
2022-12-11T03:03:29.351Z,19.60
2022-12-11T03:05:57.202Z,19.60
2022-12-11T03:08:25.013Z,19.60
2022-12-11T03:10:52.792Z,19.60
2022-12-11T03:13:20.535Z,19.60
2022-12-11T03:15:48.334Z,19.60
2022-12-11T03:18:16.228Z,19.60
2022-12-11T03:20:44.172Z,19.50
2022-12-11T03:23:11.935Z,19.60
2022-12-11T03:25:39.683Z,19.50
2022-12-11T03:28:07.485Z,19.50
2022-12-11T03:30:36.615Z,19.50
2022-12-11T03:33:04.584Z,19.50
2022-12-11T03:35:33.002Z,19.50
2022-12-11T03:38:00.761Z,19.50
2022-12-11T03:40:28.898Z,19.50
2022-12-11T03:42:56.648Z,19.50
2022-12-11T03:45:24.421Z,19.50
2022-12-11T03:47:52.184Z,19.50
2022-12-11T03:50:19.955Z,19.50
2022-12-11T03:52:47.795Z,19.50
2022-12-11T03:55:15.859Z,19.50
2022-12-11T03:57:43.645Z,19.50
2022-12-11T04:00:11.536Z,19.50
2022-12-11T04:02:39.274Z,19.50
2022-12-11T04:05:07.053Z,19.50
2022-12-11T04:07:34.854Z,19.50
2022-12-11T04:10:02.591Z,19.50
2022-12-11T04:12:30.328Z,19.50
2022-12-11T04:15:03.294Z,19.50
2022-12-11T04:17:47.671Z,19.50
2022-12-11T04:20:47.436Z,19.40
2022-12-11T04:23:32.940Z,19.40
2022-12-11T04:26:00.864Z,19.40
2022-12-11T04:28:28.698Z,19.40
2022-12-11T04:30:56.465Z,19.40
2022-12-11T04:33:24.280Z,19.40
2022-12-11T04:35:52.039Z,19.40
2022-12-11T04:38:19.833Z,19.40
2022-12-11T04:40:47.560Z,19.40
2022-12-11T04:43:15.348Z,19.40
2022-12-11T04:45:43.133Z,19.40
2022-12-11T04:48:10.972Z,19.30
2022-12-11T04:50:38.891Z,19.40
2022-12-11T04:53:06.678Z,19.40
2022-12-11T04:55:34.426Z,19.30
2022-12-11T04:58:02.347Z,19.30
2022-12-11T05:00:30.108Z,19.30
2022-12-11T05:02:57.910Z,19.30
2022-12-11T05:05:25.778Z,19.30
2022-12-11T05:07:53.579Z,19.30
2022-12-11T05:10:21.414Z,19.20
2022-12-11T05:12:49.196Z,19.30
2022-12-11T05:15:16.999Z,19.30
2022-12-11T05:17:44.760Z,19.20
2022-12-11T05:20:12.504Z,19.20
2022-12-11T05:22:41.409Z,19.20
2022-12-11T05:25:09.629Z,19.20
2022-12-11T05:27:37.648Z,19.20
2022-12-11T05:30:05.404Z,19.20
2022-12-11T05:32:33.188Z,19.20
2022-12-11T05:35:00.929Z,19.20
2022-12-11T05:37:28.786Z,19.20
2022-12-11T05:39:56.511Z,19.20
2022-12-11T05:42:28.847Z,19.30
2022-12-11T05:44:57.087Z,19.30
2022-12-11T05:47:25.593Z,19.30
2022-12-11T05:49:53.389Z,21.80
2022-12-11T05:52:21.752Z,28.50
2022-12-11T05:54:49.572Z,34.60
2022-12-11T05:57:17.311Z,39.00
2022-12-11T05:59:45.352Z,41.60
2022-12-11T06:02:13.322Z,43.00
2022-12-11T06:04:41.147Z,44.00
2022-12-11T06:07:08.978Z,44.90
2022-12-11T06:09:36.797Z,45.50
2022-12-11T06:12:04.606Z,46.10
2022-12-11T06:14:32.651Z,46.60
2022-12-11T06:17:01.636Z,47.00
2022-12-11T06:19:34.978Z,47.00
2022-12-11T06:22:04.486Z,46.70
2022-12-11T06:24:32.284Z,46.00
2022-12-11T06:27:00.101Z,45.00
2022-12-11T06:29:27.846Z,43.80
2022-12-11T06:31:55.695Z,42.70
2022-12-11T06:34:23.490Z,41.40
2022-12-11T06:36:51.280Z,40.20
2022-12-11T06:39:19.190Z,38.90
2022-12-11T06:41:49.056Z,37.80
2022-12-11T06:44:16.922Z,36.70
2022-12-11T06:46:44.682Z,35.70
2022-12-11T06:49:12.457Z,34.70
2022-12-11T06:51:40.274Z,33.70
2022-12-11T06:54:08.027Z,32.90
2022-12-11T06:56:35.789Z,32.10
2022-12-11T06:59:07.277Z,31.30
2022-12-11T07:01:35.349Z,30.60
2022-12-11T07:04:03.084Z,30.00
2022-12-11T07:06:31.254Z,29.40
2022-12-11T07:08:59.093Z,29.00
2022-12-11T07:11:26.894Z,28.50
2022-12-11T07:13:54.846Z,28.20
2022-12-11T07:16:22.748Z,27.90
2022-12-11T07:18:52.029Z,27.50
2022-12-11T07:21:19.913Z,27.20
2022-12-11T07:23:47.968Z,26.90
2022-12-11T07:26:15.768Z,26.50
2022-12-11T07:28:43.516Z,26.20
2022-12-11T07:31:11.303Z,25.90
2022-12-11T07:33:39.092Z,25.60
2022-12-11T07:36:06.908Z,25.30
2022-12-11T07:38:34.630Z,25.00
2022-12-11T07:41:02.661Z,24.80
2022-12-11T07:43:30.484Z,24.60
2022-12-11T07:45:58.274Z,24.40
2022-12-11T07:48:26.060Z,24.20
2022-12-11T07:50:53.872Z,24.00
2022-12-11T07:53:21.680Z,23.80
2022-12-11T07:55:49.545Z,23.60
2022-12-11T07:58:17.438Z,23.50
2022-12-11T08:00:45.174Z,24.10
2022-12-11T08:03:12.933Z,26.10
2022-12-11T08:05:40.706Z,28.40
2022-12-11T08:08:08.570Z,30.70
2022-12-11T08:10:36.368Z,32.50
2022-12-11T08:13:04.167Z,34.00
2022-12-11T08:15:31.941Z,35.10
2022-12-11T08:17:59.815Z,35.60
2022-12-11T08:20:27.636Z,35.80
2022-12-11T08:22:59.176Z,35.60
2022-12-11T08:25:27.184Z,35.20
2022-12-11T08:27:55.020Z,34.70
2022-12-11T08:30:22.828Z,34.10
2022-12-11T08:32:50.726Z,33.40
2022-12-11T08:35:18.462Z,32.80
2022-12-11T08:37:46.166Z,32.00
2022-12-11T08:40:14.284Z,31.40
2022-12-11T08:42:42.095Z,30.80
2022-12-11T08:45:10.114Z,30.20
2022-12-11T08:47:38.623Z,29.60
2022-12-11T08:50:06.499Z,29.10
2022-12-11T08:52:34.269Z,28.50
2022-12-11T08:55:02.101Z,28.00
2022-12-11T08:57:29.900Z,27.60
2022-12-11T08:59:58.009Z,27.30
2022-12-11T09:02:25.888Z,27.00
2022-12-11T09:04:53.665Z,26.70
2022-12-11T09:07:21.409Z,26.40
2022-12-11T09:09:49.214Z,26.10
2022-12-11T09:12:18.251Z,25.80
2022-12-11T09:14:46.037Z,25.50
2022-12-11T09:17:13.873Z,25.20
2022-12-11T09:19:41.730Z,24.90
2022-12-11T09:22:11.328Z,24.70
2022-12-11T09:24:39.144Z,24.50
2022-12-11T09:27:06.922Z,24.20
2022-12-11T09:29:34.714Z,24.00
2022-12-11T09:32:02.475Z,23.80
2022-12-11T09:34:30.339Z,23.70
2022-12-11T09:36:58.100Z,23.50
2022-12-11T09:39:25.863Z,23.30
2022-12-11T09:41:53.585Z,23.20
2022-12-11T09:44:21.495Z,23.10
2022-12-11T09:46:49.328Z,22.90
2022-12-11T09:49:17.144Z,22.80
2022-12-11T09:51:44.885Z,22.70
2022-12-11T09:54:12.754Z,22.60
2022-12-11T09:56:40.559Z,22.40
2022-12-11T09:59:10.474Z,22.40
2022-12-11T10:01:38.568Z,22.30
2022-12-11T10:04:06.408Z,22.20
2022-12-11T10:06:34.269Z,22.10
2022-12-11T10:09:02.206Z,22.00
2022-12-11T10:11:30.002Z,22.00
2022-12-11T10:13:57.973Z,21.90
2022-12-11T10:16:25.862Z,21.80
2022-12-11T10:18:53.663Z,21.70
2022-12-11T10:21:21.415Z,21.70
2022-12-11T10:23:49.130Z,21.70
2022-12-11T10:26:16.944Z,21.60
2022-12-11T10:28:48.895Z,21.50
2022-12-11T10:31:16.875Z,21.50
2022-12-11T10:33:44.702Z,21.50
2022-12-11T10:36:12.563Z,21.40
2022-12-11T10:38:40.394Z,21.30
2022-12-11T10:41:08.327Z,21.30
2022-12-11T10:43:36.135Z,21.20
2022-12-11T10:46:04.155Z,21.20
2022-12-11T10:48:32.220Z,21.10
2022-12-11T10:51:00.207Z,21.10
2022-12-11T10:53:28.109Z,21.10
2022-12-11T10:55:58.022Z,21.00
2022-12-11T10:58:25.858Z,21.00
2022-12-11T11:00:53.626Z,21.00
2022-12-11T11:03:21.473Z,20.90
2022-12-11T11:05:50.708Z,20.90
2022-12-11T11:08:19.333Z,20.90
2022-12-11T11:10:47.300Z,20.90
2022-12-11T11:13:15.521Z,20.80
2022-12-11T11:15:43.515Z,20.80
2022-12-11T11:18:11.405Z,20.80
2022-12-11T11:20:39.162Z,20.80
2022-12-11T11:23:07.021Z,20.80
2022-12-11T11:25:34.964Z,20.80
2022-12-11T11:28:02.840Z,20.70
2022-12-11T11:30:30.956Z,20.70
2022-12-11T11:33:00.788Z,20.70
2022-12-11T11:35:28.570Z,20.70
2022-12-11T11:37:57.654Z,20.70
2022-12-11T11:40:25.490Z,20.70
2022-12-11T11:42:53.302Z,20.60
2022-12-11T11:45:21.233Z,20.60
2022-12-11T11:47:50.848Z,20.60
2022-12-11T11:50:18.612Z,20.60
2022-12-11T11:52:46.717Z,20.60
2022-12-11T11:55:18.613Z,20.60
2022-12-11T11:57:49.813Z,20.60
2022-12-11T12:00:17.714Z,20.60
2022-12-11T12:02:48.845Z,20.60
2022-12-11T12:05:16.708Z,20.60
2022-12-11T12:07:44.625Z,20.50
2022-12-11T12:10:12.838Z,20.50
2022-12-11T12:12:40.643Z,20.50
2022-12-11T12:15:08.637Z,20.40
2022-12-11T12:17:38.197Z,20.40
2022-12-11T12:20:06.076Z,20.40
2022-12-11T12:22:33.839Z,20.40
2022-12-11T12:25:01.603Z,20.40
2022-12-11T12:27:51.710Z,20.30
2022-12-11T12:30:22.468Z,20.30
2022-12-11T12:32:51.022Z,20.30
2022-12-11T12:35:18.803Z,20.30
2022-12-11T12:37:46.660Z,20.30
2022-12-11T12:40:14.741Z,20.20
2022-12-11T12:42:42.545Z,20.20
2022-12-11T12:45:10.550Z,20.30
2022-12-11T12:47:38.675Z,20.30
2022-12-11T12:50:06.488Z,23.00
2022-12-11T12:52:34.554Z,29.40
2022-12-11T12:55:18.863Z,35.30
2022-12-11T12:57:46.633Z,39.40
2022-12-11T13:00:15.566Z,42.30
2022-12-11T13:02:45.330Z,43.90
2022-12-11T13:05:13.535Z,45.20
2022-12-11T13:07:41.436Z,46.00
2022-12-11T13:10:09.212Z,46.50
2022-12-11T13:12:37.293Z,46.90
2022-12-11T13:15:05.087Z,47.00
2022-12-11T13:17:33.583Z,46.60
2022-12-11T13:20:01.551Z,45.90
2022-12-11T13:22:29.261Z,44.90
2022-12-11T13:24:57.292Z,43.80
2022-12-11T13:27:24.986Z,42.50
2022-12-11T13:29:52.798Z,41.30
2022-12-11T13:32:20.537Z,40.00
2022-12-11T13:34:48.287Z,38.80
2022-12-11T13:37:16.140Z,37.70
2022-12-11T13:39:43.889Z,36.70
2022-12-11T13:42:15.975Z,35.70
2022-12-11T13:44:45.242Z,34.80
2022-12-11T13:47:12.935Z,33.80
2022-12-11T13:49:40.727Z,33.10
2022-12-11T13:52:08.479Z,32.30
2022-12-11T13:54:36.494Z,31.70
2022-12-11T13:57:04.204Z,31.00
2022-12-11T13:59:32.180Z,30.40
2022-12-11T14:02:00.012Z,29.80
2022-12-11T14:04:28.345Z,29.20
2022-12-11T14:06:56.149Z,28.60
2022-12-11T14:09:23.886Z,28.10
2022-12-11T14:11:56.592Z,27.70
2022-12-11T14:14:24.758Z,27.30
2022-12-11T14:16:52.845Z,26.90
2022-12-11T14:19:20.916Z,26.60
2022-12-11T14:21:48.683Z,26.30
2022-12-11T14:24:16.469Z,26.00
2022-12-11T14:26:44.389Z,25.70
2022-12-11T14:29:12.108Z,25.40
2022-12-11T14:31:39.872Z,25.60
2022-12-11T14:34:07.589Z,26.70
2022-12-11T14:36:35.333Z,28.40
2022-12-11T14:39:03.076Z,30.10
2022-12-11T14:41:30.940Z,31.40
2022-12-11T14:43:58.671Z,32.50
2022-12-11T14:46:26.431Z,33.50
2022-12-11T14:49:00.407Z,34.30
2022-12-11T14:51:28.676Z,34.50
2022-12-11T14:53:56.465Z,34.20
2022-12-11T14:56:24.154Z,33.70
2022-12-11T14:58:51.885Z,33.20
2022-12-11T15:01:20.119Z,32.50
2022-12-11T15:03:47.880Z,31.90
2022-12-11T15:06:15.582Z,31.20
2022-12-11T15:08:43.382Z,30.60
2022-12-11T15:11:11.162Z,30.00
2022-12-11T15:13:38.854Z,29.50
2022-12-11T15:16:07.417Z,29.00
2022-12-11T15:18:35.263Z,28.40
2022-12-11T15:21:03.042Z,28.10
2022-12-11T15:23:30.811Z,27.70
2022-12-11T15:25:58.594Z,27.50
2022-12-11T15:28:26.346Z,27.20
2022-12-11T15:30:54.279Z,27.00
2022-12-11T15:33:22.269Z,26.60
2022-12-11T15:35:49.998Z,26.30
2022-12-11T15:38:17.851Z,26.00
2022-12-11T15:40:45.558Z,25.70
2022-12-11T15:43:13.266Z,25.40
2022-12-11T15:45:43.482Z,25.10
2022-12-11T15:48:11.451Z,24.80
2022-12-11T15:50:39.217Z,24.60
2022-12-11T15:53:07.081Z,24.40
2022-12-11T15:55:35.691Z,25.30
2022-12-11T15:58:03.415Z,28.60
2022-12-11T16:00:31.162Z,33.10
2022-12-11T16:02:59.013Z,37.00
2022-12-11T16:05:26.880Z,39.70
2022-12-11T16:07:54.873Z,41.20
2022-12-11T16:10:22.746Z,42.00
2022-12-11T16:12:50.555Z,42.10
2022-12-11T16:15:23.469Z,41.90
2022-12-11T16:17:52.301Z,41.30
2022-12-11T16:20:20.654Z,40.50
2022-12-11T16:22:48.425Z,39.50
2022-12-11T16:25:16.178Z,38.40
2022-12-11T16:27:44.042Z,37.50
2022-12-11T16:30:11.931Z,36.60
2022-12-11T16:32:41.050Z,35.60
2022-12-11T16:35:09.062Z,34.70
2022-12-11T16:37:38.086Z,33.90
2022-12-11T16:40:07.906Z,33.00
2022-12-11T16:42:35.837Z,32.20
2022-12-11T16:45:03.661Z,31.50
2022-12-11T16:47:31.425Z,30.80
2022-12-11T16:49:59.343Z,30.20
2022-12-11T16:52:27.276Z,29.60
2022-12-11T16:54:55.135Z,29.10
2022-12-11T17:00:12.183Z,28.10
2022-12-11T17:02:40.088Z,27.80
2022-12-11T17:05:08.153Z,27.40
2022-12-11T17:07:36.194Z,27.10
2022-12-11T17:10:04.169Z,26.80
2022-12-11T17:12:31.987Z,26.50
2022-12-11T17:15:00.073Z,26.20
2022-12-11T17:17:27.954Z,25.90
2022-12-11T17:19:55.710Z,25.60
2022-12-11T17:22:23.482Z,25.40
2022-12-11T17:24:51.304Z,25.20
2022-12-11T17:27:19.020Z,25.00
2022-12-11T17:29:47.409Z,24.80
2022-12-11T17:32:18.491Z,24.60
2022-12-11T17:34:51.653Z,24.40
2022-12-11T17:37:21.383Z,24.20
2022-12-11T17:39:50.028Z,24.00
2022-12-11T17:42:18.019Z,23.80
2022-12-11T17:44:46.551Z,23.70
2022-12-11T17:47:14.346Z,24.10
2022-12-11T17:49:42.157Z,26.30
2022-12-11T17:52:12.337Z,30.70
2022-12-11T17:54:40.377Z,35.20
2022-12-11T17:57:08.478Z,38.40
2022-12-11T17:59:36.282Z,40.10
2022-12-11T18:02:04.176Z,41.00
2022-12-11T18:04:34.229Z,41.30
2022-12-11T18:07:01.988Z,41.30
2022-12-11T18:09:29.685Z,40.90
2022-12-11T18:11:57.686Z,40.30
2022-12-11T18:14:25.601Z,39.30
2022-12-11T18:16:53.776Z,38.40
2022-12-11T18:19:22.804Z,37.40
2022-12-11T18:21:50.658Z,36.50
2022-12-11T18:24:18.427Z,35.50
2022-12-11T18:26:46.147Z,34.60
2022-12-11T18:29:14.145Z,33.80
2022-12-11T18:31:42.825Z,33.00
2022-12-11T18:34:10.964Z,32.30
2022-12-11T18:36:40.768Z,31.60
2022-12-11T18:39:08.549Z,30.90
2022-12-11T18:41:36.381Z,30.30
2022-12-11T18:44:09.306Z,29.70
2022-12-11T18:46:37.743Z,29.10
2022-12-11T18:49:05.635Z,28.60
2022-12-11T18:51:33.507Z,28.10
2022-12-11T18:54:01.262Z,27.70
2022-12-11T18:56:30.088Z,27.40
2022-12-11T18:58:57.846Z,27.10
2022-12-11T19:01:25.642Z,26.80
2022-12-11T19:03:56.332Z,26.40
2022-12-11T19:06:28.570Z,26.20
2022-12-11T19:08:56.391Z,25.80
2022-12-11T19:11:24.637Z,25.60
2022-12-11T19:13:52.464Z,25.40
2022-12-11T19:16:20.260Z,25.10
2022-12-11T19:18:48.238Z,24.90
2022-12-11T19:21:16.112Z,24.60
2022-12-11T19:23:43.965Z,24.50
2022-12-11T19:26:11.783Z,24.20
2022-12-11T19:28:39.578Z,24.00
2022-12-11T19:31:07.445Z,23.90
2022-12-11T19:33:35.392Z,23.70
2022-12-11T19:36:03.168Z,23.60
2022-12-11T19:38:31.002Z,23.50
2022-12-11T19:40:58.854Z,23.40
2022-12-11T19:43:26.621Z,23.30
2022-12-11T19:45:54.406Z,23.60
2022-12-11T19:48:23.231Z,26.30
2022-12-11T19:50:51.040Z,29.50
2022-12-11T19:53:18.772Z,31.50
2022-12-11T19:55:46.541Z,32.50
2022-12-11T19:58:14.354Z,32.80
2022-12-11T20:00:42.187Z,32.60
2022-12-11T20:03:10.031Z,32.30
2022-12-11T20:05:37.790Z,31.80
2022-12-11T20:08:35.250Z,31.30
2022-12-11T20:10:53.265Z,30.70
2022-12-11T20:13:21.982Z,30.10
2022-12-11T20:15:51.602Z,29.50
2022-12-11T20:18:19.726Z,29.00
2022-12-11T20:20:47.509Z,28.50
2022-12-11T20:23:15.430Z,28.10
2022-12-11T20:25:43.219Z,27.70
2022-12-11T20:28:11.002Z,27.30
2022-12-11T20:30:38.982Z,27.00
2022-12-11T20:33:06.832Z,26.60
2022-12-11T20:35:34.666Z,26.30
2022-12-11T20:38:02.481Z,26.00
2022-12-11T20:40:30.228Z,25.60
2022-12-11T20:42:58.240Z,25.30
2022-12-11T20:45:26.044Z,25.00
2022-12-11T20:47:53.936Z,24.70
2022-12-11T20:50:21.721Z,24.50
2022-12-11T20:52:49.529Z,24.30
2022-12-11T20:55:17.295Z,24.00
2022-12-11T20:57:45.541Z,23.80
2022-12-11T21:00:13.313Z,23.60
2022-12-11T21:02:41.148Z,23.50
2022-12-11T21:05:09.545Z,23.30
2022-12-11T21:07:37.580Z,23.10
2022-12-11T21:10:05.415Z,23.00
2022-12-11T21:12:33.167Z,22.90
2022-12-11T21:15:00.966Z,22.80
2022-12-11T21:17:28.715Z,22.60
2022-12-11T21:19:56.489Z,22.50
2022-12-11T21:22:24.443Z,22.40
2022-12-11T21:24:52.239Z,22.30
2022-12-11T21:27:24.418Z,22.20
2022-12-11T21:29:52.458Z,22.20
2022-12-11T21:32:20.197Z,22.10
2022-12-11T21:34:47.986Z,22.00
2022-12-11T21:37:15.861Z,21.90
2022-12-11T21:39:43.666Z,21.90
2022-12-11T21:42:11.473Z,21.80
2022-12-11T21:47:27.784Z,21.70
2022-12-11T21:49:55.657Z,21.70
2022-12-11T21:52:23.502Z,21.60
2022-12-11T21:54:51.319Z,21.50
2022-12-11T21:57:25.865Z,21.50
2022-12-11T21:59:54.205Z,21.40
2022-12-11T22:02:22.348Z,21.40
2022-12-11T22:04:50.130Z,21.30
2022-12-11T22:07:17.849Z,21.30
2022-12-11T22:09:45.580Z,21.30
2022-12-11T22:12:13.275Z,21.20
2022-12-11T22:14:41.063Z,21.20
2022-12-11T22:17:08.853Z,21.20
2022-12-11T22:19:36.567Z,21.20
2022-12-11T22:22:04.269Z,21.10
2022-12-11T22:24:32.313Z,21.10
2022-12-11T22:27:00.093Z,21.10
2022-12-11T22:29:27.817Z,21.10
2022-12-11T22:31:55.577Z,21.10
2022-12-11T22:34:23.385Z,21.00
2022-12-11T22:36:51.213Z,21.00
2022-12-11T22:39:18.985Z,21.00
2022-12-11T22:41:46.706Z,21.00
2022-12-11T22:44:14.419Z,21.00
2022-12-11T22:46:45.432Z,20.90
2022-12-11T22:49:17.334Z,20.90
2022-12-11T22:51:45.135Z,20.90
2022-12-11T22:54:12.925Z,20.90
2022-12-11T22:56:40.668Z,20.90
2022-12-11T22:59:08.643Z,20.90
2022-12-11T23:01:36.456Z,20.90
2022-12-11T23:04:04.181Z,20.80
2022-12-11T23:06:32.057Z,20.80
2022-12-11T23:08:59.902Z,20.80
2022-12-11T23:11:27.807Z,20.80
2022-12-11T23:13:55.698Z,20.80
2022-12-11T23:16:23.709Z,20.80
2022-12-11T23:18:51.526Z,20.80
2022-12-11T23:21:19.555Z,20.80
2022-12-11T23:23:47.321Z,20.80
2022-12-11T23:26:15.267Z,20.80
2022-12-11T23:28:43.066Z,20.80
2022-12-11T23:31:10.858Z,20.80
2022-12-11T23:33:38.662Z,20.80
2022-12-11T23:36:06.427Z,20.70
2022-12-11T23:38:34.238Z,20.70
2022-12-11T23:41:02.052Z,20.70
2022-12-11T23:43:29.941Z,20.70
2022-12-11T23:45:57.849Z,20.70
2022-12-11T23:48:25.758Z,20.70
2022-12-11T23:50:53.486Z,20.70
2022-12-11T23:53:21.385Z,20.70
2022-12-11T23:55:49.136Z,20.70
2022-12-11T23:58:17.039Z,20.70
